Time;durP1;ratioP1;P1;durP2;ratioP2;P2;SDS_P1;SDS_P2;PMS_P1;PMS_P2;Temp;Humidity;BMP_temperature;BMP_pressure;BME280_temperature;BME280_humidity;BME280_pressure;Samples;Min_cycle;Max_cycle;Signal;HPM_P1;HPM_P2
2023/02/07 00:01:16;;;;;;;8.48;3.60;;;4.60;89.50;;;;;;5025483;28;20033;-67
2023/02/07 00:03:42;;;;;;;5.63;2.45;;;4.60;89.60;;;;;;5027289;28;20037;-67
2023/02/07 00:06:13;;;;;;;7.38;3.22;;;4.60;89.70;;;;;;5025186;28;20076;-68
2023/02/07 00:08:40;;;;;;;6.70;3.27;;;4.50;89.80;;;;;;5022254;28;20018;-68
2023/02/07 00:11:09;;;;;;;7.00;3.05;;;4.50;89.90;;;;;;5021006;28;20029;-68
2023/02/07 00:13:35;;;;;;;5.10;2.70;;;4.50;89.80;;;;;;5025080;28;20022;-67
2023/02/07 00:16:03;;;;;;;5.25;2.47;;;4.50;89.90;;;;;;5023886;28;20099;-67
2023/02/07 00:18:29;;;;;;;5.88;2.72;;;4.40;90.00;;;;;;5021657;28;20469;-68
2023/02/07 00:21:04;;;;;;;5.63;2.85;;;4.40;90.00;;;;;;5022538;28;20042;-68
2023/02/07 00:23:30;;;;;;;6.07;2.63;;;4.30;90.10;;;;;;5020435;28;20022;-68
2023/02/07 00:25:55;;;;;;;7.43;2.80;;;4.30;90.10;;;;;;5019345;28;20036;-68
2023/02/07 00:28:21;;;;;;;5.38;2.13;;;4.30;90.10;;;;;;5019878;28;20697;-67
2023/02/07 00:30:47;;;;;;;10.27;4.00;;;4.30;90.10;;;;;;5019431;28;20108;-68
2023/02/07 00:33:13;;;;;;;4.68;2.30;;;4.20;90.10;;;;;;5023548;28;20783;-68
2023/02/07 00:35:38;;;;;;;12.27;3.80;;;4.20;90.20;;;;;;5020158;28;20049;-68
2023/02/07 00:38:04;;;;;;;10.00;3.15;;;4.10;90.30;;;;;;5021417;28;20052;-68
2023/02/07 00:40:30;;;;;;;6.55;3.17;;;4.00;90.40;;;;;;5021140;28;20444;-68
2023/02/07 00:42:55;;;;;;;9.68;3.17;;;4.00;90.40;;;;;;5020189;28;20041;-68
2023/02/07 00:45:21;;;;;;;6.47;2.95;;;3.90;90.50;;;;;;5020851;28;20504;-68
2023/02/07 00:47:46;;;;;;;7.55;2.92;;;3.90;90.50;;;;;;5023562;28;20119;-68
2023/02/07 00:50:12;;;;;;;9.10;3.45;;;3.90;90.60;;;;;;5027877;28;20033;-67
2023/02/07 00:52:37;;;;;;;8.05;2.90;;;3.80;90.60;;;;;;5028533;28;20071;-67
2023/02/07 00:55:03;;;;;;;6.32;2.78;;;3.80;90.60;;;;;;5034995;28;20078;-67
2023/02/07 00:57:28;;;;;;;4.90;2.70;;;3.80;90.60;;;;;;5028553;28;20751;-67
2023/02/07 00:59:54;;;;;;;6.38;2.83;;;3.80;90.60;;;;;;5028134;28;20045;-67
2023/02/07 01:02:19;;;;;;;6.75;2.70;;;3.80;90.60;;;;;;5028313;28;20021;-67
2023/02/07 01:04:45;;;;;;;6.35;2.95;;;3.70;90.60;;;;;;5027916;28;20029;-68
2023/02/07 01:07:11;;;;;;;6.60;3.00;;;3.70;90.60;;;;;;5033650;28;20017;-67
2023/02/07 01:09:36;;;;;;;11.50;4.00;;;3.60;90.90;;;;;;5028492;28;20021;-68
2023/02/07 01:12:02;;;;;;;6.70;2.95;;;3.60;90.70;;;;;;5028036;28;20027;-68
2023/02/07 01:14:27;;;;;;;9.60;2.95;;;3.60;90.70;;;;;;5027609;28;20021;-68
2023/02/07 01:16:53;;;;;;;8.23;3.10;;;3.60;90.70;;;;;;5031409;28;20384;-68
2023/02/07 01:19:18;;;;;;;7.35;2.63;;;3.50;90.70;;;;;;5031280;28;20029;-68
2023/02/07 01:21:44;;;;;;;6.30;2.65;;;3.50;90.70;;;;;;5026285;28;20181;-68
2023/02/07 01:24:10;;;;;;;4.35;2.25;;;3.50;90.70;;;;;;5026588;28;20083;-68
2023/02/07 01:26:37;;;;;;;6.15;2.88;;;3.50;90.70;;;;;;5028242;28;20102;-68
2023/02/07 01:29:02;;;;;;;5.28;2.80;;;3.50;90.70;;;;;;5027735;28;20104;-68
2023/02/07 01:31:28;;;;;;;7.18;3.08;;;3.40;90.70;;;;;;5029884;28;20124;-68
2023/02/07 01:33:55;;;;;;;5.93;2.72;;;3.40;90.70;;;;;;5027715;28;20025;-68
2023/02/07 01:36:22;;;;;;;9.55;3.00;;;3.30;90.70;;;;;;5028620;28;20049;-67
2023/02/07 01:38:47;;;;;;;8.80;3.30;;;3.30;90.70;;;;;;5028112;28;20021;-68
2023/02/07 01:41:13;;;;;;;6.65;2.65;;;3.30;90.80;;;;;;5027438;28;20100;-68
2023/02/07 01:44:02;;;;;;;8.38;2.92;;;3.30;90.70;;;;;;5027672;28;20030;-68
2023/02/07 01:46:29;;;;;;;7.30;3.25;;;3.20;90.60;;;;;;5020038;28;20032;-68
2023/02/07 01:49:01;;;;;;;8.00;3.45;;;3.20;90.60;;;;;;5026449;28;20030;-68
2023/02/07 01:51:29;;;;;;;10.95;3.72;;;3.10;90.60;;;;;;5024658;28;20072;-68
2023/02/07 01:53:57;;;;;;;10.23;4.18;;;3.10;90.70;;;;;;5025897;28;20116;-67
2023/02/07 01:56:24;;;;;;;8.32;3.75;;;3.00;90.70;;;;;;5028164;28;20025;-67
2023/02/07 01:58:49;;;;;;;8.80;3.83;;;3.00;90.70;;;;;;5027629;28;20021;-68
2023/02/07 02:01:19;;;;;;;8.25;4.03;;;3.00;90.70;;;;;;5027192;28;20037;-68
2023/02/07 02:03:49;;;;;;;6.85;3.47;;;2.90;90.70;;;;;;5027240;28;20032;-68
2023/02/07 02:06:15;;;;;;;9.95;4.55;;;2.90;90.70;;;;;;5027580;28;20029;-68
2023/02/07 02:08:41;;;;;;;12.13;4.25;;;2.90;90.70;;;;;;5028604;28;20023;-68
2023/02/07 02:11:40;;;;;;;6.30;3.38;;;2.80;90.70;;;;;;5027016;28;20036;-67
2023/02/07 02:14:34;;;;;;;11.02;4.13;;;2.80;90.70;;;;;;5026365;28;20028;-68
2023/02/07 02:17:08;;;;;;;10.48;4.15;;;2.80;90.70;;;;;;5027386;28;20084;-67
2023/02/07 02:19:43;;;;;;;7.07;3.80;;;2.80;90.70;;;;;;5030475;28;20034;-67
2023/02/07 02:22:27;;;;;;;10.75;4.50;;;2.70;90.70;;;;;;5031282;28;20029;-67
2023/02/07 02:25:26;;;;;;;11.52;4.68;;;2.70;90.70;;;;;;5026858;28;20033;-68
2023/02/07 02:28:21;;;;;;;9.40;4.38;;;2.70;90.70;;;;;;5030768;28;20037;-67
2023/02/07 02:31:00;;;;;;;9.65;3.60;;;2.70;90.70;;;;;;5029077;28;20068;-67
2023/02/07 02:33:56;;;;;;;8.93;3.65;;;2.60;90.80;;;;;;5027068;28;20025;-67
2023/02/07 02:36:44;;;;;;;11.20;3.88;;;2.60;90.70;;;;;;5031088;28;20032;-67
2023/02/07 02:39:35;;;;;;;10.30;4.47;;;2.60;90.80;;;;;;5028924;28;20030;-67
2023/02/07 02:42:13;;;;;;;9.55;4.05;;;2.50;90.80;;;;;;5027897;28;20029;-68
2023/02/07 02:44:59;;;;;;;8.70;3.70;;;2.50;90.70;;;;;;5030903;28;20032;-68
2023/02/07 02:47:28;;;;;;;7.88;3.53;;;2.50;90.70;;;;;;5031233;28;20045;-68
2023/02/07 02:49:54;;;;;;;8.30;4.07;;;2.40;90.80;;;;;;5028241;28;20116;-68
2023/02/07 02:52:19;;;;;;;8.82;3.95;;;2.40;90.80;;;;;;5031442;28;20116;-68
2023/02/07 02:54:45;;;;;;;8.90;3.88;;;2.40;90.80;;;;;;5031810;28;20071;-68
2023/02/07 02:57:31;;;;;;;5.82;3.05;;;2.40;90.80;;;;;;5031373;28;20025;-68
2023/02/07 03:00:10;;;;;;;5.18;2.63;;;2.40;90.80;;;;;;5026511;28;20411;-68
2023/02/07 03:02:42;;;;;;;8.48;3.45;;;2.40;90.70;;;;;;5026463;28;20025;-68
2023/02/07 03:05:21;;;;;;;6.47;2.78;;;2.30;90.70;;;;;;5030379;28;20080;-68
2023/02/07 03:08:04;;;;;;;8.20;3.20;;;2.30;90.70;;;;;;5030906;28;20048;-68
2023/02/07 03:10:40;;;;;;;5.13;2.35;;;2.30;90.70;;;;;;5030683;28;20033;-68
2023/02/07 03:13:14;;;;;;;5.50;2.83;;;2.40;90.70;;;;;;5030933;28;20108;-68
2023/02/07 03:16:02;;;;;;;5.00;2.65;;;2.40;90.70;;;;;;5028900;28;20022;-68
2023/02/07 03:18:30;;;;;;;4.88;2.65;;;2.40;90.60;;;;;;5027450;28;20484;-68
2023/02/07 03:21:04;;;;;;;5.78;2.80;;;2.30;90.50;;;;;;5030911;28;20822;-68
2023/02/07 03:23:30;;;;;;;5.88;2.78;;;2.30;90.50;;;;;;5027839;28;20075;-68
2023/02/07 03:25:59;;;;;;;4.28;2.22;;;2.30;90.50;;;;;;5030726;28;20021;-67
2023/02/07 03:28:26;;;;;;;7.22;3.30;;;2.30;90.50;;;;;;5027755;28;20105;-67
2023/02/07 03:30:55;;;;;;;9.32;3.53;;;2.20;90.40;;;;;;5030560;28;20380;-67
2023/02/07 03:33:23;;;;;;;7.43;2.90;;;2.20;90.50;;;;;;5029621;28;20373;-67
2023/02/07 03:36:14;;;;;;;5.57;2.50;;;2.20;90.50;;;;;;5030690;28;20485;-67
2023/02/07 03:38:40;;;;;;;7.63;2.40;;;2.20;90.50;;;;;;5026684;28;20025;-69
2023/02/07 03:41:13;;;;;;;4.50;2.30;;;2.20;90.50;;;;;;5030229;28;20160;-69
2023/02/07 03:43:40;;;;;;;7.53;2.90;;;2.20;90.50;;;;;;5028480;28;20026;-68
2023/02/07 03:46:08;;;;;;;5.55;2.80;;;2.20;90.40;;;;;;5028856;28;20114;-69
2023/02/07 03:48:34;;;;;;;6.63;2.90;;;2.10;90.40;;;;;;5027970;28;20033;-68
2023/02/07 03:50:59;;;;;;;6.85;2.88;;;2.10;90.40;;;;;;5028486;28;20619;-68
2023/02/07 03:53:25;;;;;;;7.00;3.53;;;2.10;90.40;;;;;;5029253;28;20025;-68
2023/02/07 03:55:52;;;;;;;6.07;2.90;;;2.10;90.50;;;;;;5030189;28;20032;-68
2023/02/07 03:58:17;;;;;;;5.60;2.90;;;2.00;90.30;;;;;;5029194;28;20029;-68
2023/02/07 04:00:44;;;;;;;5.43;2.90;;;2.00;90.40;;;;;;5029818;28;20029;-67
2023/02/07 04:03:09;;;;;;;5.03;2.25;;;2.00;90.40;;;;;;5030153;28;20040;-68
2023/02/07 04:05:35;;;;;;;9.88;3.80;;;2.00;90.40;;;;;;5030206;28;20025;-68
2023/02/07 04:08:01;;;;;;;6.60;3.22;;;2.00;90.30;;;;;;5030870;28;20026;-68
2023/02/07 04:10:27;;;;;;;6.65;3.50;;;1.90;90.30;;;;;;5029276;28;20025;-68
2023/02/07 04:12:52;;;;;;;7.97;3.10;;;1.90;90.30;;;;;;5028684;28;20147;-68
2023/02/07 04:15:18;;;;;;;10.52;3.33;;;1.90;90.30;;;;;;5028439;28;20037;-68
2023/02/07 04:17:44;;;;;;;5.47;2.88;;;1.90;90.20;;;;;;5028960;28;20084;-68
2023/02/07 04:20:10;;;;;;;5.55;3.05;;;1.90;90.20;;;;;;5029347;28;20029;-68
2023/02/07 04:22:35;;;;;;;4.38;2.30;;;1.90;90.20;;;;;;5030074;28;20029;-68
2023/02/07 04:25:01;;;;;;;7.25;3.05;;;1.90;90.20;;;;;;5029547;28;20518;-68
2023/02/07 04:27:26;;;;;;;5.40;2.95;;;1.80;90.20;;;;;;5027554;28;20022;-68
2023/02/07 04:29:52;;;;;;;6.82;3.35;;;1.80;90.20;;;;;;5028478;28;20080;-68
2023/02/07 04:32:17;;;;;;;6.15;3.10;;;1.80;90.20;;;;;;5029334;28;20091;-68
2023/02/07 04:34:43;;;;;;;4.40;2.35;;;1.80;90.20;;;;;;5029612;28;20033;-68
2023/02/07 04:37:09;;;;;;;6.78;2.80;;;1.80;90.20;;;;;;5029216;28;20022;-68
2023/02/07 04:39:34;;;;;;;6.88;2.97;;;1.70;90.20;;;;;;5026851;28;20033;-68
2023/02/07 04:42:00;;;;;;;9.25;3.30;;;1.60;90.10;;;;;;5029545;28;20076;-68
2023/02/07 04:44:25;;;;;;;7.15;3.22;;;1.60;90.20;;;;;;5028263;28;20035;-68
2023/02/07 04:46:51;;;;;;;5.43;2.83;;;1.60;90.30;;;;;;5028542;28;20021;-68
2023/02/07 04:49:16;;;;;;;7.72;3.00;;;1.60;90.30;;;;;;5028128;28;20507;-68
2023/02/07 04:51:42;;;;;;;9.63;3.20;;;1.50;90.50;;;;;;5028715;28;20436;-68
2023/02/07 04:54:07;;;;;;;7.10;3.53;;;1.50;90.20;;;;;;5029031;28;20502;-68
2023/02/07 04:56:33;;;;;;;7.47;3.13;;;1.50;90.30;;;;;;5028214;28;20403;-68
2023/02/07 04:58:58;;;;;;;5.80;2.83;;;1.50;90.40;;;;;;5029269;28;20440;-68
2023/02/07 05:01:24;;;;;;;8.65;3.17;;;1.40;90.30;;;;;;5028315;28;20512;-69
2023/02/07 05:03:50;;;;;;;5.90;2.55;;;1.50;90.30;;;;;;5027658;28;20476;-68
2023/02/07 05:06:15;;;;;;;7.43;2.90;;;1.50;90.30;;;;;;5028690;28;20026;-69
2023/02/07 05:08:41;;;;;;;6.63;2.95;;;1.40;90.30;;;;;;5029274;28;20057;-68
2023/02/07 05:11:06;;;;;;;6.05;3.25;;;1.40;90.30;;;;;;5027380;28;20138;-68
2023/02/07 05:13:32;;;;;;;6.03;3.47;;;1.40;90.30;;;;;;5028388;28;20020;-68
2023/02/07 05:16:00;;;;;;;6.78;2.97;;;1.40;90.40;;;;;;5028174;28;20384;-68
2023/02/07 05:18:26;;;;;;;5.93;2.53;;;1.30;90.30;;;;;;5019724;28;20029;-68
2023/02/07 05:20:53;;;;;;;8.05;3.45;;;1.30;90.40;;;;;;5028831;28;20037;-68
2023/02/07 05:23:18;;;;;;;6.60;3.00;;;1.30;90.40;;;;;;5027614;28;20048;-68
2023/02/07 05:25:45;;;;;;;4.82;2.47;;;1.30;90.40;;;;;;5028196;28;20029;-68
2023/02/07 05:28:11;;;;;;;4.82;2.90;;;1.30;90.40;;;;;;5028027;28;20025;-68
2023/02/07 05:30:37;;;;;;;5.68;2.72;;;1.30;90.40;;;;;;5027770;28;20036;-68
2023/02/07 05:33:02;;;;;;;5.50;2.42;;;1.40;90.40;;;;;;5028268;28;20053;-69
2023/02/07 05:35:33;;;;;;;4.45;2.28;;;1.50;90.40;;;;;;5026634;28;20017;-68
2023/02/07 05:37:58;;;;;;;4.13;2.45;;;1.50;90.30;;;;;;5027646;28;20014;-69
2023/02/07 05:40:24;;;;;;;6.32;2.47;;;1.50;90.20;;;;;;5028022;28;20029;-68
2023/02/07 05:42:49;;;;;;;3.88;2.00;;;1.50;90.10;;;;;;5027375;28;20033;-68
2023/02/07 05:45:15;;;;;;;3.58;2.30;;;1.50;90.10;;;;;;5027820;28;20071;-68
2023/02/07 05:47:40;;;;;;;4.95;2.25;;;1.50;90.10;;;;;;5027790;28;20060;-68
2023/02/07 05:50:06;;;;;;;3.70;1.88;;;1.50;90.10;;;;;;5027482;28;20101;-68
2023/02/07 05:52:32;;;;;;;3.72;2.35;;;1.50;90.10;;;;;;5032051;28;20101;-68
2023/02/07 05:54:57;;;;;;;3.35;1.90;;;1.60;90.00;;;;;;5032106;28;20018;-68
2023/02/07 05:57:23;;;;;;;2.45;1.58;;;1.60;90.00;;;;;;5031694;28;20029;-68
2023/02/07 05:59:48;;;;;;;3.45;1.92;;;1.60;90.00;;;;;;5030521;28;20032;-68
2023/02/07 06:02:14;;;;;;;3.22;1.90;;;1.60;89.80;;;;;;5027760;28;20144;-69
2023/02/07 06:04:40;;;;;;;5.38;2.60;;;1.50;89.70;;;;;;5029192;28;20364;-67
2023/02/07 06:07:05;;;;;;;5.90;2.70;;;1.40;89.80;;;;;;5031616;28;20387;-68
2023/02/07 06:09:31;;;;;;;3.60;2.08;;;1.40;89.90;;;;;;5028215;28;20100;-68
2023/02/07 06:11:56;;;;;;;3.70;2.08;;;1.40;90.00;;;;;;5031102;28;20484;-68
2023/02/07 06:14:22;;;;;;;5.25;1.98;;;1.50;90.00;;;;;;5027209;28;20523;-68
2023/02/07 06:16:48;;;;;;;3.95;2.38;;;1.50;89.90;;;;;;5029438;28;20673;-67
2023/02/07 06:19:13;;;;;;;3.03;2.08;;;1.50;89.70;;;;;;5030772;28;20048;-67
2023/02/07 06:21:39;;;;;;;4.60;2.08;;;1.60;89.60;;;;;;5030505;28;20053;-68
2023/02/07 06:24:05;;;;;;;5.13;2.40;;;1.50;89.30;;;;;;5028493;28;20049;-68
2023/02/07 06:26:31;;;;;;;2.65;1.60;;;1.50;89.30;;;;;;5029124;28;20572;-68
2023/02/07 06:28:56;;;;;;;3.90;2.20;;;1.50;89.40;;;;;;5030080;28;20029;-69
2023/02/07 06:31:22;;;;;;;3.53;1.80;;;1.50;89.30;;;;;;5029081;28;20479;-68
2023/02/07 06:33:47;;;;;;;2.70;1.77;;;1.40;89.30;;;;;;5034379;28;20061;-68
2023/02/07 06:36:13;;;;;;;4.88;1.83;;;1.40;89.40;;;;;;5030432;28;20030;-68
2023/02/07 06:38:38;;;;;;;6.00;2.10;;;1.40;89.60;;;;;;5030871;28;20025;-69
2023/02/07 06:41:06;;;;;;;3.45;1.83;;;1.40;89.70;;;;;;5030199;28;20151;-68
2023/02/07 06:43:32;;;;;;;4.05;2.10;;;1.40;89.50;;;;;;5025973;28;20036;-68
2023/02/07 06:45:57;;;;;;;2.78;1.90;;;1.40;89.30;;;;;;5031073;28;20618;-68
2023/02/07 06:48:23;;;;;;;4.82;2.42;;;1.50;89.20;;;;;;5031106;28;20037;-68
2023/02/07 06:50:50;;;;;;;3.45;2.40;;;1.50;89.00;;;;;;5030899;28;20026;-69
2023/02/07 06:53:16;;;;;;;2.85;1.98;;;1.50;88.90;;;;;;5030610;28;20078;-68
2023/02/07 06:55:41;;;;;;;3.67;2.08;;;1.50;88.90;;;;;;5030869;28;20033;-69
2023/02/07 06:58:07;;;;;;;4.10;1.80;;;1.50;88.90;;;;;;5029897;28;20026;-69
2023/02/07 07:00:33;;;;;;;6.10;2.25;;;1.50;88.70;;;;;;5030492;28;20037;-68
2023/02/07 07:03:01;;;;;;;5.00;2.35;;;1.50;88.50;;;;;;5028835;28;20443;-68
2023/02/07 07:05:28;;;;;;;4.55;2.65;;;1.50;88.70;;;;;;5031433;28;20033;-69
2023/02/07 07:07:55;;;;;;;5.53;1.92;;;1.50;88.60;;;;;;5026787;28;20037;-69
2023/02/07 07:10:21;;;;;;;3.53;2.10;;;1.50;88.60;;;;;;5031653;28;20139;-69
2023/02/07 07:12:47;;;;;;;3.65;2.10;;;1.50;88.60;;;;;;5027374;28;20022;-69
2023/02/07 07:15:12;;;;;;;4.10;2.20;;;1.50;88.40;;;;;;5026102;28;20915;-69
2023/02/07 07:17:38;;;;;;;3.63;2.33;;;1.50;88.30;;;;;;5027913;28;20037;-69
2023/02/07 07:20:06;;;;;;;3.45;1.83;;;1.40;88.30;;;;;;5025495;28;20021;-69
2023/02/07 07:22:32;;;;;;;3.17;2.00;;;1.40;88.40;;;;;;5025654;28;20109;-69
2023/02/07 07:24:57;;;;;;;5.30;2.58;;;1.40;88.60;;;;;;5030009;28;20101;-69
2023/02/07 07:27:23;;;;;;;2.20;1.40;;;1.40;88.40;;;;;;5027331;28;20056;-69
2023/02/07 07:29:48;;;;;;;3.97;1.80;;;1.40;88.50;;;;;;5031361;28;20025;-69
2023/02/07 07:32:15;;;;;;;3.75;1.83;;;1.40;88.60;;;;;;5025406;28;20037;-69
2023/02/07 07:34:41;;;;;;;3.58;2.40;;;1.40;88.60;;;;;;5024933;28;20029;-69
2023/02/07 07:37:07;;;;;;;3.00;1.70;;;1.40;88.60;;;;;;5022374;28;20021;-69
2023/02/07 07:39:32;;;;;;;2.13;1.70;;;1.40;88.70;;;;;;5025814;28;20032;-69
2023/02/07 07:41:58;;;;;;;6.75;2.13;;;1.40;88.50;;;;;;5023219;28;20037;-69
2023/02/07 07:44:24;;;;;;;3.58;2.05;;;1.40;88.50;;;;;;5029045;28;20044;-69
2023/02/07 07:46:50;;;;;;;4.45;2.00;;;1.40;88.50;;;;;;5025986;28;20633;-69
2023/02/07 07:49:15;;;;;;;3.15;1.48;;;1.50;88.50;;;;;;5028681;28;20037;-69
2023/02/07 07:51:41;;;;;;;4.28;1.98;;;1.60;88.40;;;;;;5027116;28;20029;-69
2023/02/07 07:54:06;;;;;;;2.78;1.55;;;1.60;88.30;;;;;;5027575;28;20025;-69
2023/02/07 07:56:34;;;;;;;4.10;2.35;;;1.70;88.20;;;;;;5026150;28;20029;-69
2023/02/07 07:59:00;;;;;;;5.70;2.67;;;1.70;88.10;;;;;;5029812;28;20024;-69
2023/02/07 08:01:26;;;;;;;4.32;2.50;;;1.70;87.90;;;;;;5023579;28;20079;-69
2023/02/07 08:03:52;;;;;;;5.35;2.35;;;1.70;87.80;;;;;;5028715;28;20089;-69
2023/02/07 08:06:18;;;;;;;6.82;2.80;;;1.70;87.70;;;;;;5029979;28;20484;-69
2023/02/07 08:08:44;;;;;;;6.38;2.78;;;1.70;87.70;;;;;;5029336;28;20036;-69
2023/02/07 08:11:10;;;;;;;7.18;2.65;;;1.60;87.60;;;;;;5026411;28;20388;-69
2023/02/07 08:13:36;;;;;;;5.22;2.97;;;1.50;87.80;;;;;;5029039;28;20096;-69
2023/02/07 08:16:04;;;;;;;8.05;3.47;;;1.50;88.00;;;;;;5029182;28;20013;-69
2023/02/07 08:18:29;;;;;;;7.68;3.58;;;1.50;87.90;;;;;;5028655;28;20017;-69
2023/02/07 08:20:55;;;;;;;8.75;4.10;;;1.50;87.90;;;;;;5025686;28;20049;-69
2023/02/07 08:23:21;;;;;;;11.95;4.13;;;1.50;87.90;;;;;;5029648;28;20044;-70
2023/02/07 08:25:48;;;;;;;9.93;3.60;;;1.50;88.00;;;;;;5028513;28;20480;-70
2023/02/07 08:28:14;;;;;;;8.20;3.28;;;1.50;88.20;;;;;;5028144;28;20044;-69
2023/02/07 08:30:39;;;;;;;5.07;2.95;;;1.50;88.20;;;;;;5024933;28;20388;-69
2023/02/07 08:33:05;;;;;;;8.02;4.18;;;1.50;88.10;;;;;;5032007;28;20021;-69
2023/02/07 08:35:31;;;;;;;6.22;2.80;;;1.50;88.20;;;;;;5028756;28;20022;-71
2023/02/07 08:37:57;;;;;;;7.68;3.10;;;1.50;88.20;;;;;;5028764;28;20108;-69
2023/02/07 08:40:24;;;;;;;8.10;4.00;;;1.60;88.20;;;;;;5027666;28;20113;-70
2023/02/07 08:42:49;;;;;;;6.32;2.88;;;1.70;88.30;;;;;;5028526;28;20156;-69
2023/02/07 08:45:16;;;;;;;8.57;4.25;;;1.80;88.10;;;;;;5028539;28;20104;-69
2023/02/07 08:47:42;;;;;;;8.02;3.67;;;1.70;87.90;;;;;;5026486;28;20025;-69
2023/02/07 08:50:09;;;;;;;8.27;3.83;;;1.70;88.00;;;;;;5026918;28;20033;-69
2023/02/07 08:52:34;;;;;;;10.25;3.50;;;1.80;88.20;;;;;;5027738;28;20674;-69
2023/02/07 08:55:00;;;;;;;7.63;3.90;;;1.80;88.10;;;;;;5028426;28;20032;-70
2023/02/07 08:57:26;;;;;;;9.38;4.25;;;1.80;88.00;;;;;;5028392;28;20013;-69
2023/02/07 08:59:52;;;;;;;11.35;5.00;;;1.80;88.00;;;;;;5025013;28;20582;-69
2023/02/07 09:02:18;;;;;;;15.02;5.38;;;1.90;87.90;;;;;;5027581;28;20033;-69
2023/02/07 09:04:43;;;;;;;7.07;3.85;;;1.80;87.90;;;;;;5027884;28;20037;-69
2023/02/07 09:07:10;;;;;;;10.48;3.83;;;1.90;87.90;;;;;;5026532;28;20036;-69
2023/02/07 09:09:35;;;;;;;10.18;4.85;;;2.00;87.80;;;;;;5027954;28;20029;-69
2023/02/07 09:12:01;;;;;;;11.18;5.22;;;2.00;87.60;;;;;;5027392;28;20109;-69
2023/02/07 09:14:27;;;;;;;8.68;3.97;;;1.90;87.70;;;;;;5025770;28;20029;-69
2023/02/07 09:16:52;;;;;;;8.15;3.78;;;2.00;88.50;;;;;;5020671;28;20040;-69
2023/02/07 09:19:18;;;;;;;8.32;4.25;;;2.00;87.90;;;;;;5020870;28;20037;-69
2023/02/07 09:21:44;;;;;;;8.30;4.00;;;2.00;87.80;;;;;;5023500;28;20060;-69
2023/02/07 09:24:09;;;;;;;12.05;5.18;;;2.10;87.90;;;;;;5028883;28;20025;-69
2023/02/07 09:26:37;;;;;;;8.77;3.88;;;2.00;87.70;;;;;;5025314;28;20022;-69
2023/02/07 09:29:04;;;;;;;9.07;4.55;;;2.10;88.00;;;;;;5027922;28;20044;-69
2023/02/07 09:31:30;;;;;;;7.45;4.10;;;2.10;87.80;;;;;;5027543;28;20028;-69
2023/02/07 09:33:56;;;;;;;8.90;3.90;;;2.10;87.70;;;;;;5025388;28;20022;-69
2023/02/07 09:36:24;;;;;;;11.15;5.07;;;2.20;87.80;;;;;;5027048;28;20028;-69
2023/02/07 09:38:50;;;;;;;9.55;4.68;;;2.20;87.70;;;;;;5026605;28;20648;-69
2023/02/07 09:41:35;;;;;;;7.97;3.85;;;2.30;87.50;;;;;;5027105;28;20502;-69
2023/02/07 09:44:19;;;;;;;9.55;3.72;;;2.30;87.30;;;;;;5026530;28;20079;-69
2023/02/07 09:46:47;;;;;;;9.32;4.22;;;2.30;87.10;;;;;;5025671;28;20076;-69
2023/02/07 09:49:46;;;;;;;7.97;3.95;;;2.30;87.10;;;;;;5025282;28;20056;-69
2023/02/07 09:52:18;;;;;;;5.95;2.70;;;2.30;86.90;;;;;;5026067;28;20616;-69
2023/02/07 09:54:48;;;;;;;8.35;4.25;;;2.30;86.90;;;;;;5021432;28;20029;-69
2023/02/07 09:57:20;;;;;;;13.05;4.55;;;2.30;86.80;;;;;;5025357;28;20371;-69
2023/02/07 10:00:03;;;;;;;;;;;2.30;86.70;;;;;;5024523;28;20468;-69
2023/02/07 10:02:37;;;;;;;10.15;3.60;;;2.30;86.70;;;;;;5023031;28;20397;-69
2023/02/07 10:05:15;;;;;;;10.88;3.78;;;2.40;86.70;;;;;;5023680;28;20545;-69
2023/02/07 10:07:42;;;;;;;12.38;4.50;;;2.30;86.50;;;;;;5024598;28;20033;-69
2023/02/07 10:10:37;;;;;;;9.07;4.00;;;2.30;86.40;;;;;;5025225;28;20021;-69
2023/02/07 10:13:20;;;;;;;8.20;3.58;;;2.40;86.50;;;;;;5024297;28;20040;-69
2023/02/07 10:16:37;;;;;;;14.40;4.88;;;2.50;86.30;;;;;;5024640;28;20026;-69
2023/02/07 10:19:21;;;;;;;7.28;2.95;;;2.40;86.30;;;;;;5010160;28;20550;-69
2023/02/07 10:22:15;;;;;;;10.88;4.35;;;2.50;86.30;;;;;;5040067;28;20758;-69
2023/02/07 10:24:49;;;;;;;8.85;4.47;;;2.50;85.90;;;;;;5023509;28;20034;-69
2023/02/07 10:27:29;;;;;;;9.18;4.72;;;2.60;85.70;;;;;;5040207;28;20030;-69
2023/02/07 10:30:02;;;;;;;11.20;4.82;;;2.60;85.60;;;;;;5020706;28;20029;-69
2023/02/07 10:32:34;;;;;;;10.23;3.75;;;2.60;85.40;;;;;;5025793;28;20075;-69
2023/02/07 10:35:17;;;;;;;7.63;3.88;;;2.70;85.60;;;;;;5026566;28;20029;-69
2023/02/07 10:37:44;;;;;;;8.60;3.78;;;2.80;85.20;;;;;;5027612;28;20131;-69
2023/02/07 10:40:28;;;;;;;6.07;3.10;;;2.90;85.10;;;;;;5028231;28;20116;-69
2023/02/07 10:43:04;;;;;;;7.95;3.45;;;3.00;85.10;;;;;;5030630;28;20021;-69
2023/02/07 10:45:30;;;;;;;9.65;3.83;;;3.00;84.70;;;;;;5030381;28;20021;-69
2023/02/07 10:47:56;;;;;;;8.98;3.97;;;3.00;84.10;;;;;;5028841;28;20029;-69
2023/02/07 10:50:23;;;;;;;8.32;3.67;;;3.00;84.30;;;;;;5028403;28;20021;-69
2023/02/07 10:52:52;;;;;;;8.68;3.70;;;3.10;84.40;;;;;;5029727;28;20725;-69
2023/02/07 10:55:33;;;;;;;9.88;4.75;;;3.20;84.20;;;;;;5030545;28;20634;-69
2023/02/07 10:57:59;;;;;;;9.10;3.80;;;3.20;83.60;;;;;;5026317;28;20488;-69
2023/02/07 11:00:29;;;;;;;9.43;3.55;;;3.30;83.90;;;;;;5028538;28;20029;-69
2023/02/07 11:03:03;;;;;;;9.48;4.28;;;3.30;83.50;;;;;;5027115;28;20056;-69
2023/02/07 11:05:32;;;;;;;7.05;3.25;;;3.40;83.50;;;;;;5029667;28;20021;-69
2023/02/07 11:08:03;;;;;;;7.68;3.97;;;3.40;83.30;;;;;;5030251;28;20026;-69
2023/02/07 11:10:35;;;;;;;4.95;3.13;;;3.40;82.10;;;;;;5027673;28;20029;-69
2023/02/07 11:13:01;;;;;;;7.43;3.80;;;3.50;82.90;;;;;;5026416;28;20021;-69
2023/02/07 11:15:30;;;;;;;7.03;3.22;;;3.60;82.80;;;;;;5029737;28;20029;-69
2023/02/07 11:17:56;;;;;;;7.18;3.45;;;3.70;82.20;;;;;;5028822;28;20029;-69
2023/02/07 11:20:28;;;;;;;6.22;2.38;;;3.80;82.30;;;;;;5029381;28;20080;-69
2023/02/07 11:22:55;;;;;;;;;;;3.90;82.10;;;;;;5026549;28;20026;-69
2023/02/07 11:25:30;;;;;;;7.97;3.58;;;4.00;82.10;;;;;;5029213;28;20035;-69
2023/02/07 11:27:56;;;;;;;6.65;3.38;;;4.00;81.30;;;;;;5026256;28;20561;-69
2023/02/07 11:30:22;;;;;;;7.32;2.60;;;4.00;81.00;;;;;;5028564;28;20037;-69
2023/02/07 11:33:03;;;;;;;6.90;3.17;;;4.00;81.20;;;;;;5023430;28;20079;-69
2023/02/07 11:35:29;;;;;;;6.45;3.28;;;3.90;80.10;;;;;;5027515;28;20353;-69
2023/02/07 11:38:11;;;;;;;5.70;2.58;;;3.90;80.40;;;;;;5027601;28;20026;-69
2023/02/07 11:40:42;;;;;;;5.22;2.70;;;4.00;80.80;;;;;;5023948;28;20053;-69
2023/02/07 11:43:08;;;;;;;6.15;2.95;;;4.10;80.00;;;;;;5026876;28;20113;-69
2023/02/07 11:45:34;;;;;;;4.50;2.67;;;4.10;79.70;;;;;;5027224;28;20127;-69
2023/02/07 11:48:01;;;;;;;4.03;2.50;;;4.30;81.00;;;;;;5027479;28;20022;-69
2023/02/07 11:50:30;;;;;;;5.35;2.40;;;4.40;79.40;;;;;;5025898;28;20581;-69
2023/02/07 11:52:58;;;;;;;5.43;2.42;;;4.30;79.70;;;;;;5028159;28;20025;-69
2023/02/07 11:55:31;;;;;;;6.00;2.33;;;4.40;79.90;;;;;;5027453;28;20411;-69
2023/02/07 11:58:00;;;;;;;4.50;2.80;;;4.50;79.40;;;;;;5027959;28;20017;-69
2023/02/07 12:00:29;;;;;;;4.78;2.47;;;4.50;79.60;;;;;;5028895;28;20384;-69
2023/02/07 12:03:08;;;;;;;5.55;2.72;;;4.60;78.90;;;;;;5022323;28;20022;-69
2023/02/07 12:05:38;;;;;;;4.88;2.30;;;4.70;79.70;;;;;;5027873;28;20057;-69
2023/02/07 12:08:11;;;;;;;6.00;3.10;;;5.00;80.20;;;;;;5027687;28;20014;-69
2023/02/07 12:10:41;;;;;;;6.63;2.58;;;6.80;78.80;;;;;;5028379;28;20120;-69
2023/02/07 12:13:18;;;;;;;4.93;2.30;;;9.00;72.30;;;;;;5027975;28;20064;-69
2023/02/07 12:15:50;;;;;;;8.13;3.10;;;10.50;66.80;;;;;;5027976;28;20034;-69
2023/02/07 12:18:52;;;;;;;4.45;2.60;;;10.50;64.60;;;;;;5028138;28;20029;-69
2023/02/07 12:21:33;;;;;;;8.55;4.07;;;10.90;63.40;;;;;;5027095;28;20041;-69
2023/02/07 12:24:09;;;;;;;5.47;2.83;;;11.40;61.10;;;;;;5028573;28;20032;-69
2023/02/07 12:26:53;;;;;;;3.72;1.88;;;12.00;60.50;;;;;;5028248;28;20033;-69
2023/02/07 12:29:48;;;;;;;3.92;2.30;;;11.60;60.00;;;;;;5028805;28;20387;-69
2023/02/07 12:32:35;;;;;;;5.03;2.70;;;10.00;63.50;;;;;;5027752;28;20102;-69
2023/02/07 12:35:23;;;;;;;5.38;2.92;;;8.80;66.80;;;;;;5026265;28;20025;-69
2023/02/07 12:38:01;;;;;;;4.50;2.17;;;7.90;69.50;;;;;;5027800;28;20152;-69
2023/02/07 12:41:17;;;;;;;5.70;2.50;;;7.90;71.90;;;;;;5027731;28;20057;-69
2023/02/07 12:44:05;;;;;;;2.97;1.95;;;8.40;71.40;;;;;;4986417;28;20529;-69
2023/02/07 12:46:36;;;;;;;4.82;2.05;;;8.80;70.40;;;;;;4986812;28;20030;-69
2023/02/07 12:49:05;;;;;;;3.05;1.95;;;8.50;70.30;;;;;;5013513;28;20043;-68
2023/02/07 12:52:14;;;;;;;3.53;1.70;;;8.20;71.60;;;;;;5027922;28;20384;-69
2023/02/07 12:55:11;;;;;;;4.25;1.92;;;8.40;73.00;;;;;;5015523;28;20037;-69
2023/02/07 12:57:55;;;;;;;2.33;1.60;;;9.00;72.60;;;;;;5024964;28;20021;-69
2023/02/07 13:00:46;;;;;;;4.07;2.05;;;9.00;71.00;;;;;;5024462;28;20045;-68
2023/02/07 13:03:21;;;;;;;4.43;2.43;;;8.80;69.90;;;;;;5009951;28;20049;-69
2023/02/07 13:06:02;;;;;;;2.25;1.60;;;8.60;69.90;;;;;;5020377;28;20033;-69
2023/02/07 13:08:45;;;;;;;4.03;1.88;;;8.40;70.20;;;;;;5022871;28;20040;-69
2023/02/07 13:11:39;;;;;;;5.07;2.10;;;8.10;71.50;;;;;;5026404;28;20033;-69